createdAt,value
2017-12-04T00:01:37.359Z,6.79
2017-12-04T00:04:11.284Z,6.74
2017-12-04T00:06:46.331Z,6.72
2017-12-04T00:09:19.680Z,6.73
2017-12-04T00:11:52.478Z,6.75
2017-12-04T00:14:24.487Z,6.80
2017-12-04T00:16:56.590Z,6.77
2017-12-04T00:19:29.491Z,6.83
2017-12-04T00:22:01.315Z,6.88
2017-12-04T00:24:35.017Z,6.90
2017-12-04T00:27:08.348Z,6.91
2017-12-04T00:29:40.611Z,6.91
2017-12-04T00:32:18.079Z,6.94
2017-12-04T00:34:52.411Z,6.99
2017-12-04T00:37:30.018Z,7.00
2017-12-04T00:40:03.936Z,6.79
2017-12-04T00:42:38.412Z,6.79
2017-12-04T00:45:14.184Z,6.80
2017-12-04T00:47:46.497Z,6.93
2017-12-04T00:50:19.086Z,6.80
2017-12-04T00:52:51.390Z,6.71
2017-12-04T00:55:25.281Z,6.66
2017-12-04T00:57:59.589Z,6.63
2017-12-04T01:00:34.984Z,6.73
2017-12-04T01:03:08.096Z,6.73
2017-12-04T01:05:44.809Z,6.82
2017-12-04T01:08:22.986Z,6.84
2017-12-04T01:10:58.198Z,6.89
2017-12-04T01:13:32.174Z,6.99
2017-12-04T01:16:05.906Z,7.01
2017-12-04T01:18:39.284Z,7.06
2017-12-04T01:21:13.919Z,7.28
2017-12-04T01:23:47.584Z,7.22
2017-12-04T01:26:21.824Z,7.21
2017-12-04T01:28:54.099Z,7.21
2017-12-04T01:31:27.099Z,7.22
2017-12-04T01:33:59.488Z,7.15
2017-12-04T01:36:35.706Z,7.20
2017-12-04T01:39:08.984Z,7.21
2017-12-04T01:41:42.072Z,7.23
2017-12-04T01:44:26.419Z,7.23
2017-12-04T01:47:02.799Z,7.09
2017-12-04T01:49:37.180Z,7.14
2017-12-04T01:52:10.957Z,7.25
2017-12-04T01:54:45.764Z,7.21
2017-12-04T01:57:21.065Z,7.24
2017-12-04T01:59:56.302Z,7.14
2017-12-04T02:02:31.400Z,7.09
2017-12-04T02:05:03.663Z,7.04
2017-12-04T02:07:36.693Z,7.11
2017-12-04T02:10:08.888Z,7.18
2017-12-04T02:12:40.695Z,7.14
2017-12-04T02:15:15.607Z,7.05
2017-12-04T02:17:48.715Z,7.16
2017-12-04T02:20:20.818Z,7.26
2017-12-04T02:22:55.840Z,7.29
2017-12-04T02:25:28.431Z,7.34
2017-12-04T02:28:00.521Z,7.25
2017-12-04T02:30:37.825Z,7.31
2017-12-04T02:33:10.331Z,7.33
2017-12-04T02:35:42.763Z,7.26
2017-12-04T02:38:14.741Z,7.14
2017-12-04T02:40:47.358Z,7.17
2017-12-04T02:43:19.246Z,7.19
2017-12-04T02:45:53.652Z,7.23
2017-12-04T02:48:25.454Z,7.18
2017-12-04T02:50:57.638Z,7.28
2017-12-04T02:53:31.478Z,7.37
2017-12-04T02:56:15.278Z,7.34
2017-12-04T02:58:48.950Z,7.32
2017-12-04T03:01:21.452Z,7.32
2017-12-04T03:03:54.546Z,7.35
2017-12-04T03:06:27.043Z,7.35
2017-12-04T03:09:00.549Z,7.26
2017-12-04T03:11:32.944Z,7.25
2017-12-04T03:14:05.027Z,7.34
2017-12-04T03:16:37.546Z,7.35
2017-12-04T03:19:11.527Z,7.40
2017-12-04T03:21:43.548Z,7.41
2017-12-04T03:24:16.255Z,7.44
2017-12-04T03:26:48.858Z,7.33
2017-12-04T03:29:20.664Z,7.40
2017-12-04T03:31:53.178Z,7.55
2017-12-04T03:34:24.875Z,7.60
2017-12-04T03:36:56.485Z,7.55
2017-12-04T03:39:30.008Z,7.50
2017-12-04T03:42:02.280Z,7.60
2017-12-04T03:44:35.091Z,7.62
2017-12-04T03:47:07.685Z,7.60
2017-12-04T03:49:40.595Z,7.79
2017-12-04T03:52:19.233Z,7.80
2017-12-04T03:54:51.295Z,7.81
2017-12-04T03:59:53.884Z,7.78
2017-12-04T04:05:03.087Z,7.77
2017-12-04T04:07:35.710Z,7.86
2017-12-04T04:10:12.678Z,7.78
2017-12-04T04:12:44.883Z,7.74
2017-12-04T04:15:16.700Z,7.79
2017-12-04T04:17:48.704Z,7.76
2017-12-04T04:20:26.392Z,7.76
2017-12-04T04:22:58.395Z,7.77
2017-12-04T04:25:31.688Z,7.73
2017-12-04T04:28:04.096Z,7.74
2017-12-04T04:30:36.697Z,7.75
2017-12-04T04:33:08.376Z,7.78
2017-12-04T04:35:41.278Z,7.73
2017-12-04T04:38:12.760Z,7.75
2017-12-04T04:40:44.758Z,7.83
2017-12-04T04:43:16.763Z,7.86
2017-12-04T04:45:48.973Z,7.87
2017-12-04T04:48:19.834Z,7.92
2017-12-04T04:50:51.158Z,7.96
2017-12-04T04:53:23.269Z,7.94
2017-12-04T04:55:55.363Z,7.89
2017-12-04T04:58:27.078Z,7.87
2017-12-04T05:00:59.259Z,7.88
2017-12-04T05:03:31.068Z,7.89
2017-12-04T05:06:04.550Z,7.92
2017-12-04T05:08:47.077Z,7.94
2017-12-04T05:11:26.867Z,8.01
2017-12-04T05:13:59.078Z,8.07
2017-12-04T05:16:31.773Z,8.03
2017-12-04T05:19:05.259Z,8.04
2017-12-04T05:21:38.162Z,7.99
2017-12-04T05:24:10.966Z,8.02
2017-12-04T05:26:44.151Z,8.03
2017-12-04T05:29:16.375Z,8.12
2017-12-04T05:31:48.835Z,8.07
2017-12-04T05:34:26.472Z,8.07
2017-12-04T05:36:59.347Z,8.03
2017-12-04T05:39:33.865Z,8.07
2017-12-04T05:42:05.958Z,8.05
2017-12-04T05:44:40.258Z,8.11
2017-12-04T05:47:15.455Z,8.18
2017-12-04T05:49:47.982Z,8.16
2017-12-04T05:52:20.182Z,8.09
2017-12-04T05:54:52.315Z,8.07
2017-12-04T05:57:26.667Z,8.11
2017-12-04T05:59:59.452Z,8.14
2017-12-04T06:02:32.537Z,8.20
2017-12-04T06:05:04.462Z,8.22
2017-12-04T06:07:50.849Z,8.24
2017-12-04T06:10:23.354Z,8.28
2017-12-04T06:12:55.561Z,8.23
2017-12-04T06:15:28.361Z,8.25
2017-12-04T06:18:01.168Z,8.28
2017-12-04T06:20:33.876Z,8.27
2017-12-04T06:23:06.269Z,8.29
2017-12-04T06:25:38.077Z,8.31
2017-12-04T06:28:12.601Z,8.31
2017-12-04T06:30:46.513Z,8.34
2017-12-04T06:33:19.364Z,8.36
2017-12-04T06:35:55.212Z,8.35
2017-12-04T06:38:27.142Z,8.29
2017-12-04T06:40:59.723Z,8.31
2017-12-04T06:43:33.423Z,8.33
2017-12-04T06:46:05.678Z,8.33
2017-12-04T06:48:38.004Z,8.28
2017-12-04T06:51:10.822Z,8.24
2017-12-04T06:53:43.108Z,8.35
2017-12-04T06:56:15.704Z,8.15
2017-12-04T06:58:50.600Z,8.25
2017-12-04T07:01:23.312Z,8.27
2017-12-04T07:04:01.508Z,8.32
2017-12-04T07:09:34.062Z,8.30
2017-12-04T07:12:08.118Z,8.30
2017-12-04T07:14:41.773Z,8.28
2017-12-04T07:17:22.308Z,8.37
2017-12-04T07:19:54.596Z,8.32
2017-12-04T07:22:27.482Z,8.28
2017-12-04T07:25:00.013Z,8.33
2017-12-04T07:27:37.538Z,8.32
2017-12-04T07:30:23.485Z,8.35
2017-12-04T07:32:57.870Z,8.39
2017-12-04T07:35:32.184Z,8.37
2017-12-04T07:38:06.611Z,8.35
2017-12-04T07:40:41.919Z,8.46
2017-12-04T07:43:16.695Z,8.65
2017-12-04T07:45:53.485Z,8.64
2017-12-04T07:48:28.058Z,8.76
2017-12-04T07:51:03.904Z,8.75
2017-12-04T07:53:40.522Z,8.62
2017-12-04T07:56:17.315Z,8.58
2017-12-04T07:59:02.357Z,8.59
2017-12-04T08:01:46.421Z,8.68
2017-12-04T08:04:22.015Z,8.59
2017-12-04T08:06:59.843Z,8.69
2017-12-04T08:09:34.705Z,8.69
2017-12-04T08:12:08.523Z,8.85
2017-12-04T08:14:39.285Z,9.00
2017-12-04T08:17:13.699Z,8.94
2017-12-04T08:19:46.426Z,9.00
2017-12-04T08:22:19.615Z,9.06
2017-12-04T08:24:50.565Z,9.06
2017-12-04T08:27:23.655Z,9.07
2017-12-04T08:29:56.375Z,9.24
2017-12-04T08:32:30.720Z,9.25
2017-12-04T08:35:04.713Z,9.26
2017-12-04T08:37:47.178Z,9.25
2017-12-04T08:40:20.293Z,9.44
2017-12-04T08:42:53.498Z,9.34
2017-12-04T08:45:25.800Z,9.35
2017-12-04T08:47:58.603Z,9.38
2017-12-04T08:50:40.510Z,9.39
2017-12-04T08:53:13.136Z,9.57
2017-12-04T08:55:46.511Z,9.53
2017-12-04T08:58:19.109Z,9.46
2017-12-04T09:00:54.444Z,9.63
2017-12-04T09:03:29.690Z,9.67
2017-12-04T09:06:06.788Z,9.74
2017-12-04T09:08:39.620Z,9.75
2017-12-04T09:11:10.586Z,9.76
2017-12-04T09:13:45.863Z,9.71
2017-12-04T09:16:18.647Z,9.64
2017-12-04T09:18:50.831Z,9.62
2017-12-04T09:21:29.652Z,9.62
2017-12-04T09:24:02.543Z,9.58
2017-12-04T09:26:58.501Z,9.59
2017-12-04T09:29:34.645Z,9.58
2017-12-04T09:32:08.371Z,9.70
2017-12-04T09:34:43.193Z,9.46
2017-12-04T09:37:16.052Z,9.62
2017-12-04T09:39:50.846Z,9.63
2017-12-04T09:42:22.749Z,9.75
2017-12-04T09:44:54.840Z,9.82
2017-12-04T09:47:27.628Z,9.82
2017-12-04T09:50:02.578Z,9.93
2017-12-04T09:52:51.833Z,9.93
2017-12-04T09:55:24.266Z,9.91
2017-12-04T09:57:57.430Z,10.01
2017-12-04T10:00:34.430Z,10.08
2017-12-04T10:03:10.439Z,10.25
2017-12-04T10:05:42.608Z,10.34
2017-12-04T10:08:17.805Z,10.27
2017-12-04T10:10:49.558Z,10.28
2017-12-04T10:13:22.215Z,10.07
2017-12-04T10:15:54.515Z,10.12
2017-12-04T10:18:26.904Z,10.04
2017-12-04T10:20:58.908Z,9.93
2017-12-04T10:23:42.618Z,10.00
2017-12-04T10:26:16.520Z,10.13
2017-12-04T10:28:50.336Z,10.05
2017-12-04T10:31:23.526Z,10.05
2017-12-04T10:33:55.310Z,10.08
2017-12-04T10:36:28.885Z,9.96
2017-12-04T10:39:00.109Z,9.88
2017-12-04T10:41:42.366Z,9.82
2017-12-04T10:44:15.105Z,9.84
2017-12-04T10:46:47.316Z,9.72
2017-12-04T10:49:22.121Z,9.80
2017-12-04T10:51:56.364Z,9.83
2017-12-04T10:54:34.745Z,9.97
2017-12-04T10:57:12.668Z,10.03
2017-12-04T10:59:50.496Z,10.09
2017-12-04T11:02:25.902Z,9.98
2017-12-04T11:04:59.101Z,9.93
2017-12-04T11:07:34.530Z,9.94
2017-12-04T11:10:09.878Z,9.96
2017-12-04T11:12:42.783Z,9.86
2017-12-04T11:15:20.980Z,9.95
2017-12-04T11:17:53.099Z,10.06
2017-12-04T11:20:28.124Z,10.18
2017-12-04T11:23:08.457Z,10.13
2017-12-04T11:25:43.491Z,10.00
2017-12-04T11:28:17.557Z,10.02
2017-12-04T11:30:49.766Z,10.09
2017-12-04T11:33:21.217Z,10.20
2017-12-04T11:35:55.247Z,10.27
2017-12-04T11:38:34.951Z,10.29
2017-12-04T11:41:06.346Z,10.44
2017-12-04T11:43:37.568Z,10.47
2017-12-04T11:46:13.992Z,10.36
2017-12-04T11:48:49.064Z,10.34
2017-12-04T11:51:21.480Z,10.46
2017-12-04T11:53:53.940Z,10.39
2017-12-04T11:56:25.870Z,10.37
2017-12-04T11:58:56.656Z,10.53
2017-12-04T12:01:28.972Z,10.53
2017-12-04T12:04:01.394Z,10.35
2017-12-04T12:06:33.317Z,10.35
2017-12-04T12:09:07.810Z,10.40
2017-12-04T12:11:41.415Z,10.45
2017-12-04T12:14:18.615Z,10.51
2017-12-04T12:16:57.207Z,10.23
2017-12-04T12:19:33.006Z,10.36
2017-12-04T12:22:04.917Z,10.31
2017-12-04T12:24:41.524Z,10.36
2017-12-04T12:27:15.702Z,10.44
2017-12-04T12:29:51.919Z,10.29
2017-12-04T12:32:23.914Z,10.25
2017-12-04T12:34:57.618Z,10.37
2017-12-04T12:37:32.403Z,10.40
2017-12-04T12:40:06.959Z,10.53
2017-12-04T12:42:41.609Z,10.59
2017-12-04T12:45:21.312Z,10.61
2017-12-04T12:47:54.402Z,10.58
2017-12-04T12:50:31.254Z,10.71
2017-12-04T12:53:08.405Z,10.73
2017-12-04T12:55:42.952Z,10.62
2017-12-04T12:58:19.388Z,10.60
2017-12-04T13:00:51.130Z,10.76
2017-12-04T13:03:24.161Z,10.62
2017-12-04T13:05:56.074Z,10.63
2017-12-04T13:08:27.755Z,10.76
2017-12-04T13:10:59.510Z,10.88
2017-12-04T13:13:32.373Z,11.10
2017-12-04T13:16:05.824Z,11.07
2017-12-04T13:18:40.706Z,11.10
2017-12-04T13:21:12.610Z,11.09
2017-12-04T13:23:44.616Z,11.14
2017-12-04T13:26:16.216Z,11.13
2017-12-04T13:28:49.315Z,11.02
2017-12-04T13:31:22.207Z,10.87
2017-12-04T13:36:09.026Z,10.88
2017-12-04T13:38:43.977Z,10.87
2017-12-04T13:41:15.906Z,10.86
2017-12-04T13:43:48.812Z,10.93
2017-12-04T13:46:23.401Z,11.14
2017-12-04T13:48:56.178Z,11.23
2017-12-04T13:51:31.935Z,11.09
2017-12-04T13:54:06.009Z,11.00
2017-12-04T13:56:39.006Z,10.84
2017-12-04T13:59:11.271Z,10.96
2017-12-04T14:01:45.698Z,11.02
2017-12-04T14:04:18.110Z,10.84
2017-12-04T14:06:48.988Z,10.91
2017-12-04T14:09:21.117Z,11.03
2017-12-04T14:11:53.517Z,11.09
2017-12-04T14:14:29.835Z,11.07
2017-12-04T14:17:08.671Z,11.03
2017-12-04T14:19:46.029Z,11.10
2017-12-04T14:22:18.639Z,11.15
2017-12-04T14:24:50.747Z,11.17
2017-12-04T14:27:24.628Z,11.17
2017-12-04T14:30:00.192Z,11.22
2017-12-04T14:32:35.316Z,11.03
2017-12-04T14:35:08.568Z,11.05
2017-12-04T14:37:41.991Z,11.01
2017-12-04T14:40:18.490Z,10.86
2017-12-04T14:42:50.871Z,10.94
2017-12-04T14:45:28.677Z,10.87
2017-12-04T14:48:00.570Z,10.96
2017-12-04T14:50:34.863Z,10.87
2017-12-04T14:53:08.272Z,10.90
2017-12-04T14:55:41.360Z,10.89
2017-12-04T14:58:13.766Z,10.85
2017-12-04T15:00:46.763Z,10.79
2017-12-04T15:03:28.044Z,10.71
2017-12-04T15:06:01.980Z,10.57
2017-12-04T15:08:35.764Z,10.80
2017-12-04T15:11:07.758Z,10.84
2017-12-04T15:13:42.254Z,10.67
2017-12-04T15:16:15.259Z,10.62
2017-12-04T15:18:47.689Z,10.62
2017-12-04T15:21:19.668Z,10.62
2017-12-04T15:23:55.796Z,10.58
2017-12-04T15:26:34.491Z,10.69
2017-12-04T15:29:08.576Z,10.69
2017-12-04T15:31:47.107Z,10.70
2017-12-04T15:34:22.678Z,10.59
2017-12-04T15:36:55.324Z,10.69
2017-12-04T15:39:27.460Z,10.75
2017-12-04T15:42:01.264Z,10.78
2017-12-04T15:44:35.048Z,10.68
2017-12-04T15:47:09.962Z,10.75
2017-12-04T15:49:43.245Z,10.77
2017-12-04T15:52:15.273Z,10.76
2017-12-04T15:54:51.064Z,10.76
2017-12-04T15:57:23.107Z,10.63
2017-12-04T16:00:01.217Z,10.64
2017-12-04T16:02:35.905Z,10.72
2017-12-04T16:05:08.196Z,10.60
2017-12-04T16:07:41.660Z,10.55
2017-12-04T16:10:15.921Z,10.61
2017-12-04T16:12:50.231Z,10.58
2017-12-04T16:15:25.812Z,10.61
2017-12-04T16:18:11.540Z,10.70
2017-12-04T16:20:45.918Z,10.64
2017-12-04T16:23:18.843Z,10.57
2017-12-04T16:25:55.125Z,10.68
2017-12-04T16:28:31.184Z,10.65
2017-12-04T16:31:10.356Z,10.50
2017-12-04T16:33:44.128Z,10.45
2017-12-04T16:36:19.076Z,10.48
2017-12-04T16:38:53.229Z,10.45
2017-12-04T16:41:25.540Z,10.51
2017-12-04T16:43:57.528Z,10.35
2017-12-04T16:46:29.816Z,10.57
2017-12-04T16:49:03.308Z,10.49
2017-12-04T16:51:36.413Z,10.59
2017-12-04T16:54:17.020Z,10.48
2017-12-04T16:56:49.343Z,10.39
2017-12-04T16:59:22.222Z,10.49
2017-12-04T17:01:56.485Z,10.48
2017-12-04T17:04:32.025Z,10.50
2017-12-04T17:07:10.039Z,10.49
2017-12-04T17:09:44.774Z,10.54
2017-12-04T17:12:18.139Z,10.36
2017-12-04T17:14:52.839Z,10.53
2017-12-04T17:17:27.139Z,10.44
2017-12-04T17:20:04.285Z,10.51
2017-12-04T17:22:46.747Z,10.58
2017-12-04T17:25:27.518Z,10.62
2017-12-04T17:28:08.290Z,10.56
2017-12-04T17:30:42.601Z,10.54
2017-12-04T17:33:15.967Z,10.52
2017-12-04T17:35:54.499Z,10.48
2017-12-04T17:38:30.143Z,10.49
2017-12-04T17:41:04.110Z,10.48
2017-12-04T17:43:38.246Z,10.50
2017-12-04T17:46:15.287Z,10.55
2017-12-04T17:48:49.592Z,10.65
2017-12-04T17:51:33.318Z,10.68
2017-12-04T17:57:17.705Z,10.52
2017-12-04T17:59:58.414Z,10.57
2017-12-04T18:02:30.511Z,10.54
2017-12-04T18:05:11.177Z,10.60
2017-12-04T18:07:51.168Z,10.59
2017-12-04T18:10:28.446Z,10.63
2017-12-04T18:13:01.041Z,10.53
2017-12-04T18:15:34.179Z,10.54
2017-12-04T18:18:12.586Z,10.67
2017-12-04T18:20:48.111Z,10.69
2017-12-04T18:23:22.820Z,10.55
2017-12-04T18:25:55.449Z,10.69
2017-12-04T18:28:29.357Z,10.63
2017-12-04T18:31:03.453Z,10.58
2017-12-04T18:33:36.549Z,10.51
2017-12-04T18:36:10.843Z,10.48
2017-12-04T18:38:44.441Z,10.54
2017-12-04T18:41:22.251Z,10.49
2017-12-04T18:43:57.858Z,10.39
2017-12-04T18:46:33.586Z,10.44
2017-12-04T18:49:07.482Z,10.46
2017-12-04T18:51:41.157Z,10.55
2017-12-04T18:54:12.554Z,10.41
2017-12-04T18:56:46.860Z,10.36
2017-12-04T18:59:18.885Z,10.42
2017-12-04T19:01:52.035Z,10.42
2017-12-04T19:04:24.881Z,10.40
2017-12-04T19:06:58.285Z,10.29
2017-12-04T19:09:41.603Z,10.35
2017-12-04T19:12:12.487Z,10.40
2017-12-04T19:14:45.607Z,10.22
2017-12-04T19:17:19.704Z,10.26
2017-12-04T19:19:53.517Z,10.25
2017-12-04T19:22:25.293Z,10.34
2017-12-04T19:24:59.613Z,10.42
2017-12-04T19:27:35.672Z,10.36
2017-12-04T19:30:08.326Z,10.41
2017-12-04T19:32:45.634Z,10.37
2017-12-04T19:35:18.738Z,10.18
2017-12-04T19:37:56.920Z,10.29
2017-12-04T19:40:29.012Z,10.15
2017-12-04T19:43:03.052Z,10.21
2017-12-04T19:45:41.623Z,10.18
2017-12-04T19:48:20.924Z,10.15
2017-12-04T19:50:59.709Z,10.10
2017-12-04T19:53:33.399Z,10.00
2017-12-04T19:56:07.006Z,10.03
2017-12-04T19:58:40.185Z,10.09
2017-12-04T20:01:11.302Z,10.09
2017-12-04T20:03:44.192Z,10.10
2017-12-04T20:06:17.997Z,10.00
2017-12-04T20:08:50.297Z,10.11
2017-12-04T20:11:30.992Z,10.13
2017-12-04T20:14:06.494Z,10.00
2017-12-04T20:16:38.415Z,9.98
2017-12-04T20:19:11.466Z,9.97
2017-12-04T20:21:46.273Z,10.00
2017-12-04T20:24:21.470Z,10.03
2017-12-04T20:26:57.054Z,10.03
2017-12-04T20:29:37.879Z,10.06
2017-12-04T20:32:18.406Z,9.99
2017-12-04T20:34:57.450Z,10.07
2017-12-04T20:37:32.378Z,10.00
2017-12-04T20:40:04.714Z,9.97
2017-12-04T20:42:39.854Z,10.02
2017-12-04T20:45:18.112Z,10.05
2017-12-04T20:47:50.161Z,10.06
2017-12-04T20:50:26.582Z,10.05
2017-12-04T20:53:01.080Z,9.89
2017-12-04T20:55:34.484Z,9.88
2017-12-04T20:58:08.898Z,9.90
2017-12-04T21:00:46.112Z,9.94
2017-12-04T21:03:19.147Z,9.95
2017-12-04T21:05:51.386Z,9.93
2017-12-04T21:08:34.717Z,9.86
2017-12-04T21:11:17.799Z,9.89
2017-12-04T21:16:02.077Z,9.86
2017-12-04T21:18:35.412Z,9.90
2017-12-04T21:21:07.681Z,9.80
2017-12-04T21:23:40.593Z,9.82
2017-12-04T21:26:12.486Z,9.91
2017-12-04T21:28:44.773Z,9.88
2017-12-04T21:31:20.421Z,9.90
2017-12-04T21:33:59.567Z,9.66
2017-12-04T21:36:31.795Z,9.86
2017-12-04T21:39:07.168Z,9.90
2017-12-04T21:41:41.379Z,9.93
2017-12-04T21:44:14.956Z,9.86
2017-12-04T21:46:49.549Z,9.88
2017-12-04T21:49:20.462Z,9.92
2017-12-04T21:51:54.657Z,9.94
2017-12-04T21:54:30.566Z,9.97
2017-12-04T21:57:02.678Z,9.99
2017-12-04T21:59:35.292Z,10.07
2017-12-04T22:02:07.997Z,10.00
2017-12-04T22:04:41.304Z,9.99
2017-12-04T22:07:11.822Z,10.03
2017-12-04T22:09:43.523Z,10.06
2017-12-04T22:12:16.246Z,9.94
2017-12-04T22:14:49.846Z,9.88
2017-12-04T22:17:23.355Z,9.80
2017-12-04T22:20:01.693Z,9.79
2017-12-04T22:22:35.940Z,9.86
2017-12-04T22:25:08.403Z,9.85
2017-12-04T22:27:39.123Z,9.92
2017-12-04T22:30:15.436Z,10.00
2017-12-04T22:32:46.151Z,9.91
2017-12-04T22:35:18.923Z,9.84
2017-12-04T22:37:51.314Z,9.90
2017-12-04T22:40:23.721Z,9.85
2017-12-04T22:43:02.051Z,9.74
2017-12-04T22:45:33.909Z,9.76
2017-12-04T22:48:09.128Z,9.70
2017-12-04T22:50:42.734Z,9.73
2017-12-04T22:53:16.741Z,9.74
2017-12-04T22:55:48.612Z,9.88
2017-12-04T22:58:20.022Z,9.86
2017-12-04T23:00:53.136Z,9.77
2017-12-04T23:03:26.428Z,9.81
2017-12-04T23:06:00.784Z,9.70
2017-12-04T23:08:33.465Z,9.72
2017-12-04T23:11:06.129Z,9.81
2017-12-04T23:13:37.333Z,9.76
2017-12-04T23:16:09.127Z,9.70
2017-12-04T23:18:46.010Z,9.81
2017-12-04T23:21:18.543Z,9.79
2017-12-04T23:23:52.440Z,9.87
2017-12-04T23:26:26.312Z,9.92
2017-12-04T23:29:01.717Z,9.87
2017-12-04T23:31:38.522Z,9.81
2017-12-04T23:34:12.368Z,9.92
2017-12-04T23:36:44.649Z,9.85
2017-12-04T23:39:18.621Z,9.84
2017-12-04T23:41:51.454Z,9.83
2017-12-04T23:44:23.923Z,9.82
2017-12-04T23:46:57.117Z,9.84
2017-12-04T23:49:35.816Z,9.89
2017-12-04T23:52:17.749Z,9.80
2017-12-04T23:54:53.715Z,9.67
2017-12-04T23:57:28.688Z,9.61
